Time;durP1;ratioP1;P1;durP2;ratioP2;P2;SDS_P1;SDS_P2;PMS_P1;PMS_P2;Temp;Humidity;BMP_temperature;BMP_pressure;BME280_temperature;BME280_humidity;BME280_pressure;Samples;Min_cycle;Max_cycle;Signal;HPM_P1;HPM_P2
2022/07/15 00:02:22;;;;;;;4.93;1.50;;;;;;;-147.20;100.00;63046.97;31569333;28;20079;-66
2022/07/15 00:17:22;;;;;;;7.20;1.80;;;;;;;-147.20;100.00;63046.97;31568572;28;20041;-62
2022/07/15 00:32:23;;;;;;;3.20;1.40;;;;;;;-147.20;100.00;63046.97;31566597;28;23661;-61
2022/07/15 00:47:23;;;;;;;3.50;1.30;;;;;;;-147.20;100.00;63046.97;31565740;28;20053;-62
2022/07/15 01:02:23;;;;;;;4.93;1.83;;;;;;;-147.20;100.00;63046.97;31563768;28;20029;-61
2022/07/15 01:17:25;;;;;;;4.93;2.50;;;;;;;-147.20;100.00;63046.97;31562956;28;20465;-62
2022/07/15 01:32:26;;;;;;;8.35;2.40;;;;;;;-147.20;100.00;63046.97;31560805;28;20037;-62
2022/07/15 01:47:27;;;;;;;7.82;2.70;;;;;;;-147.20;100.00;63046.97;31559511;28;20405;-62
2022/07/15 02:02:27;;;;;;;4.28;2.25;;;;;;;-147.20;100.00;63046.97;31557962;28;20122;-62
2022/07/15 02:17:27;;;;;;;5.07;2.05;;;;;;;-147.20;100.00;63046.97;31556733;28;20160;-61
2022/07/15 02:32:28;;;;;;;4.97;1.60;;;;;;;-147.20;100.00;63046.97;31555024;28;20033;-61
2022/07/15 02:47:28;;;;;;;3.90;1.30;;;;;;;-147.20;100.00;63046.97;31554061;28;20045;-62
2022/07/15 03:02:29;;;;;;;2.50;1.08;;;;;;;-147.20;100.00;63046.97;31551761;28;20029;-62
2022/07/15 03:17:29;;;;;;;1.40;0.90;;;;;;;-147.20;100.00;63046.97;31551326;28;20033;-61
2022/07/15 03:32:30;;;;;;;3.15;1.38;;;;;;;-147.20;100.00;63046.97;31563777;28;20052;-62
2022/07/15 03:47:30;;;;;;;1.77;1.02;;;;;;;-147.20;100.00;63046.97;31569046;28;20125;-62
2022/07/15 04:02:30;;;;;;;3.55;1.10;;;;;;;-147.20;100.00;63046.97;31567167;28;20075;-62
2022/07/15 04:17:31;;;;;;;2.15;1.17;;;;;;;-147.20;100.00;63046.97;31566358;28;20175;-62
2022/07/15 04:32:31;;;;;;;5.15;1.27;;;;;;;-147.20;100.00;63046.97;31565902;28;20108;-61
2022/07/15 04:47:32;;;;;;;1.80;0.98;;;;;;;-147.20;100.00;63046.97;31560870;28;20063;-62
2022/07/15 05:02:32;;;;;;;5.13;1.33;;;;;;;-147.20;100.00;63046.97;31560627;28;20029;-62
2022/07/15 05:17:36;;;;;;;1.98;0.90;;;;;;;-147.20;100.00;63046.97;31559721;28;20040;-62
2022/07/15 05:32:36;;;;;;;2.20;0.70;;;;;;;-147.20;100.00;63046.97;31557829;28;20493;-65
2022/07/15 05:47:36;;;;;;;6.13;1.23;;;;;;;-147.20;100.00;63046.97;31555071;28;20048;-62
2022/07/15 06:02:37;;;;;;;2.00;0.63;;;;;;;-147.20;100.00;63046.97;31554674;28;20572;-62
2022/07/15 06:17:37;;;;;;;1.73;0.77;;;;;;;-147.20;100.00;63046.97;31554151;28;20041;-63
2022/07/15 06:32:38;;;;;;;2.80;0.70;;;;;;;-147.20;100.00;63046.97;31553786;28;20033;-64
2022/07/15 06:47:42;;;;;;;2.35;0.75;;;;;;;-147.20;100.00;63046.97;31551787;28;20076;-62
2022/07/15 07:02:42;;;;;;;2.40;0.70;;;;;;;-147.20;100.00;63046.97;31547743;28;20033;-62
2022/07/15 07:17:43;;;;;;;5.07;1.00;;;;;;;-147.20;100.00;63046.97;31546646;28;20075;-62
2022/07/15 07:32:43;;;;;;;2.33;0.82;;;;;;;-147.20;100.00;63046.97;31546424;28;20039;-63
2022/07/15 07:47:43;;;;;;;3.45;0.82;;;;;;;-147.20;100.00;63046.97;31545026;28;20044;-63
2022/07/15 08:02:44;;;;;;;5.28;0.90;;;;;;;-147.20;100.00;63046.97;31544429;28;20017;-62
2022/07/15 08:17:45;;;;;;;7.47;1.20;;;;;;;-147.20;100.00;63046.97;31555210;28;20211;-61
2022/07/15 08:32:45;;;;;;;3.15;0.60;;;;;;;-147.20;100.00;63046.97;31564078;28;20385;-65
2022/07/15 08:47:49;;;;;;;2.38;0.80;;;;;;;-147.20;100.00;63046.97;31562595;28;20044;-66
2022/07/15 09:02:49;;;;;;;3.63;0.80;;;;;;;-147.20;100.00;63046.97;31561655;28;20032;-70
2022/07/15 09:18:02;;;;;;;7.35;1.15;;;;;;;-147.20;100.00;63046.97;31560627;28;20494;-67
2022/07/15 09:48:28;;;;;;;3.95;0.75;;;;;;;-147.20;100.00;63046.97;31558966;28;20183;-66
2022/07/15 10:03:29;;;;;;;1.90;0.45;;;;;;;-147.20;100.00;63046.97;31556439;28;20100;-66
2022/07/15 10:19:13;;;;;;;1.90;0.93;;;;;;;-147.20;100.00;63046.97;31553579;28;20053;-64
2022/07/15 10:34:13;;;;;;;2.00;0.45;;;;;;;-147.20;100.00;63046.97;31551850;28;20040;-66
2022/07/15 10:49:14;;;;;;;3.27;0.70;;;;;;;-147.20;100.00;63046.97;31552083;28;20049;-71
2022/07/15 11:04:20;;;;;;;4.53;0.67;;;;;;;-147.20;100.00;63046.97;31551673;28;20131;-64
2022/07/15 11:19:22;;;;;;;2.20;0.70;;;;;;;-147.20;100.00;63046.97;31550426;28;20080;-64
2022/07/15 11:34:23;;;;;;;1.70;0.60;;;;;;;-147.20;100.00;63046.97;31547143;28;20040;-65
2022/07/15 11:49:42;;;;;;;1.60;0.60;;;;;;;-147.20;100.00;63046.97;31553765;28;20438;-64
2022/07/15 12:04:43;;;;;;;2.08;0.60;;;;;;;-147.20;100.00;63046.97;31565509;28;20056;-62
2022/07/15 12:19:51;;;;;;;2.57;0.50;;;;;;;-147.20;100.00;63046.97;31564193;28;20033;-61
2022/07/15 12:34:57;;;;;;;3.85;0.82;;;;;;;-147.20;100.00;63046.97;31563435;28;20474;-61
2022/07/15 12:49:59;;;;;;;3.58;0.70;;;;;;;-147.20;100.00;63046.97;31561434;28;20048;-64
2022/07/15 13:05:00;;;;;;;6.70;0.90;;;;;;;-147.20;100.00;63046.97;31560237;28;20041;-64
2022/07/15 13:20:05;;;;;;;1.48;0.80;;;;;;;-147.20;100.00;63046.97;31559453;28;20454;-61
2022/07/15 13:35:07;;;;;;;2.53;0.88;;;;;;;-147.20;100.00;63046.97;31557764;28;20036;-61
2022/07/15 14:05:27;;;;;;;;;;;;;;;-147.20;100.00;63046.97;31554544;28;20044;-62
2022/07/15 14:20:28;;;;;;;3.65;0.90;;;;;;;-147.20;100.00;63046.97;31555234;28;19917;-61
2022/07/15 14:35:28;;;;;;;2.67;0.68;;;;;;;-147.20;100.00;63046.97;31551337;28;20549;-62
2022/07/15 14:50:29;;;;;;;3.00;0.80;;;;;;;-147.20;100.00;63046.97;31549659;28;20049;-64
2022/07/15 15:05:29;;;;;;;4.43;0.70;;;;;;;-147.20;100.00;63046.97;31547487;28;20029;-63
2022/07/15 15:20:29;;;;;;;5.77;1.80;;;;;;;-147.20;100.00;63046.97;31550513;28;20291;-62
2022/07/15 15:35:30;;;;;;;4.20;0.80;;;;;;;-147.20;100.00;63046.97;31570364;28;20551;-66
2022/07/15 15:50:30;;;;;;;2.27;0.93;;;;;;;-147.20;100.00;63046.97;31565926;28;20052;-62
2022/07/15 16:05:30;;;;;;;4.40;0.90;;;;;;;-147.20;100.00;63046.97;31563865;28;20036;-62
2022/07/15 16:20:31;;;;;;;3.53;1.00;;;;;;;-147.20;100.00;63046.97;31563031;28;20489;-62
2022/07/15 16:35:32;;;;;;;6.28;0.80;;;;;;;-147.20;100.00;63046.97;31561376;28;20024;-62
2022/07/15 16:50:32;;;;;;;;;;;;;;;-147.20;100.00;63046.97;31560887;28;20077;-62
2022/07/15 17:05:32;;;;;;;3.97;0.85;;;;;;;-147.20;100.00;63046.97;31561317;28;19923;-66
2022/07/15 17:20:33;;;;;;;3.97;0.90;;;;;;;-147.20;100.00;63046.97;31559135;28;20097;-62
2022/07/15 17:35:33;;;;;;;6.15;1.10;;;;;;;-147.20;100.00;63046.97;31557976;28;20116;-62
2022/07/15 17:50:34;;;;;;;1.67;0.60;;;;;;;-147.20;100.00;63046.97;31555966;28;20107;-62
2022/07/15 18:05:34;;;;;;;4.88;0.65;;;;;;;-147.20;100.00;63046.97;31554810;28;20261;-61
2022/07/15 18:20:35;;;;;;;3.03;0.90;;;;;;;-147.20;100.00;63046.97;31554758;28;20060;-62
2022/07/15 18:35:35;;;;;;;3.55;0.80;;;;;;;-147.20;100.00;63046.97;31553716;28;20480;-61
2022/07/15 18:50:36;;;;;;;1.98;0.82;;;;;;;-147.20;100.00;63046.97;31552597;28;20105;-61
2022/07/15 19:05:36;;;;;;;3.28;0.77;;;;;;;-147.20;100.00;63046.97;31549329;28;20126;-62
2022/07/15 19:20:36;;;;;;;2.53;0.88;;;;;;;-147.20;100.00;63046.97;31550914;28;20446;-62
2022/07/15 19:35:37;;;;;;;8.07;2.28;;;;;;;-147.20;100.00;63046.97;31548887;28;20086;-61
2022/07/15 19:50:37;;;;;;;3.83;1.65;;;;;;;-147.20;100.00;63046.97;31547574;28;20053;-62
2022/07/15 20:05:38;;;;;;;8.07;1.25;;;;;;;-147.20;100.00;63046.97;31549153;28;20025;-63
2022/07/15 20:20:38;;;;;;;10.10;4.40;;;;;;;-147.20;100.00;63046.97;31568206;28;20029;-62
2022/07/15 20:35:39;;;;;;;4.72;1.27;;;;;;;-147.20;100.00;63046.97;31566018;28;20060;-62
2022/07/15 20:50:40;;;;;;;4.18;1.52;;;;;;;-147.20;100.00;63046.97;31563506;28;20390;-62
2022/07/15 21:05:41;;;;;;;5.17;1.77;;;;;;;-147.20;100.00;63046.97;31561742;28;20488;-61
2022/07/15 21:20:42;;;;;;;7.25;2.72;;;;;;;-147.20;100.00;63046.97;31559831;28;20115;-61
2022/07/15 21:35:43;;;;;;;6.97;1.92;;;;;;;-147.20;100.00;63046.97;31559629;28;20551;-63
2022/07/15 21:50:43;;;;;;;4.55;1.55;;;;;;;-147.20;100.00;63046.97;31559133;28;20057;-61
2022/07/15 22:05:45;;;;;;;3.45;1.80;;;;;;;-147.20;100.00;63046.97;31559636;28;20021;-61
2022/07/15 22:20:45;;;;;;;6.80;1.45;;;;;;;-147.20;100.00;63046.97;31557239;28;20040;-61
2022/07/15 22:35:46;;;;;;;6.05;1.65;;;;;;;-147.20;100.00;63046.97;31555566;28;20394;-67
2022/07/15 22:50:46;;;;;;;4.93;1.88;;;;;;;-147.20;100.00;63046.97;31554896;28;20361;-61
2022/07/15 23:05:47;;;;;;;7.88;1.75;;;;;;;-147.20;100.00;63046.97;31553649;28;20033;-62
2022/07/15 23:20:47;;;;;;;9.63;1.85;;;;;;;-147.20;100.00;63046.97;31551911;28;20099;-61
2022/07/15 23:35:47;;;;;;;5.80;1.70;;;;;;;-147.20;100.00;63046.97;31551454;28;20036;-68
2022/07/15 23:50:49;;;;;;;3.45;2.03;;;;;;;-147.20;100.00;63046.97;31565864;28;20056;-62
